BIENTÔT MET'MAP
version 2.0 !

Prévue avant fin octobre,
la nouvelle version sera
plus belle, plus complète
et hébergée sur un serveur
3 fois plus puissant...
et toujours gratuite !


Pas compatible ?
Essayez la version Mobile !

SE CONNECTER : | S'inscrire | Disclaimer | Découvrir Orbifly |
Code OACI :

TAF - LGST Sitia - 27 May 2020 05:31 UTC - Data Source NOAA   


- Altitude de l'aérodrome : 376 ft
- Code IATA : JSH
- Pas de NOTAMs connus.


LGST - Sitia

PAS DE METAR
TAF TAF LGST
Valide du 27 à 03h jusqu'au 27 à 12h UTC


270200Z 2703/2712 30012KT 9999 FEW018 SCT030
TEMPO 2703/2710 30010G20KT
PROB30
TEMPO 2703/2712 5000 RA FEW018TCU BKN025
PROB30 2703/2712 3000 TSRA SCT015 FEW018CB BKN020

Source NOAA


MET'MAP, la Météo Aéronautique d'un coup d'oeil ! - Copyright ORBIFLY Décembre 2007

Développement & Programmation : Alexandra Zaïnal
Co-Développement : Marc-Olivier Méhu
Soutien technique & logistique : Manuel Goepfert
Conception & Financement : Baudouin d'Aumeries